Terminal Aerodrome Forecast
Issued by NWS Cleveland, OH

Home | Current Version | Previous Version | Graphics & Text | Print | Product List | Glossary On
Versions: 1 2 3 4 5 6 7 8 9 10 11 12 13 14 15 16 17 18 19 20 21 22 23 24 25 26 27 28 29 30 31 32
000
FTUS41 KCLE 180200 AAB
TAFCLE
TAF AMD
KCLE 180255Z 1803/1906 25012KT P6SM -SHRA SCT020 BKN035
      TEMPO 1803/1807 26012G22KT 5SM -SHRA BKN018
     FM180700 29012G22KT P6SM -SHRA SCT009 OVC015
     FM181500 30015G22KT P6SM VCSH OVC025
     FM182100 30014KT P6SM OVC035=

USA.gov is the U.S. government's official web portal to all federal, state and local government web resources and services.